< Cyclone 200207 2002 Season Cyclone 200209 >
Cyclone 200208 (BONNIE)
General InformationTrack Information on Google MapsDetailed Wind InformationList of All Images || ResourceGoogle EarthGE AnimationAtom FeedGeoJSON
Detalied Best Track (Time Zone = UTC)
Year Month Day Hour Lat. Long. Pressure (hPa) Wind (kt) Class Image Chart
2002 4 7 18 -7.1 133.2 1008 10 2 Image --
2002 4 8 00 -6.9 132.2 1008 15 2 Image --
2002 4 8 06 -6.7 131.5 1008 15 2 Image --
2002 4 8 12 -6.6 130.7 1005 15 2 Image --
2002 4 8 18 -6.6 130.0 1001 25 2 Image --
2002 4 9 00 -6.7 129.2 997 30 2 Image --
2002 4 9 06 -7.1 128.7 997 30 2 Image --
2002 4 9 12 -7.9 128.5 996 30 2 Image --
2002 4 9 15 -8.5 128.3 996 30 2 Image --
2002 4 9 18 -8.6 127.8 996 35 3 Image --
2002 4 9 21 -9.0 127.4 996 40 3 Image --
2002 4 10 00 -9.2 126.8 992 40 3 Image --
2002 4 10 03 -9.4 126.4 992 40 3 Image --
2002 4 10 06 -9.6 125.9 992 40 3 Image --
2002 4 10 09 -9.7 125.3 992 40 3 Image --
2002 4 10 12 -9.9 124.9 995 35 3 Image --
2002 4 10 15 -10.1 124.1 995 35 3 Image --
2002 4 10 21 -10.1 122.7 990 41 3 Image --
2002 4 11 03 -9.9 121.5 990 41 3 Image --
2002 4 11 09 -9.9 120.0 997 31 2 Image --
2002 4 12 03 -10.1 116.2 985 49 4 Image --
2002 4 12 06 -10.1 115.6 985 49 4 Image --
2002 4 12 09 -10.4 115.0 985 49 4 Image --
2002 4 12 12 -10.5 114.5 985 49 4 Image --
2002 4 12 15 -10.7 114.0 988 45 3 Image --
2002 4 12 18 -10.9 113.3 990 41 3 Image --
2002 4 12 21 -11.1 112.5 992 39 3 Image --
2002 4 13 00 -11.4 111.8 995 35 3 Image --
2002 4 13 03 -11.6 111.1 995 35 3 Image --
2002 4 13 06 -11.8 110.6 995 35 3 Image --
2002 4 13 09 -11.8 110.0 995 35 3 Image --
2002 4 13 12 -11.9 109.5 995 35 3 Image --
2002 4 13 15 -11.9 109.0 995 35 3 Image --
2002 4 13 18 -12.1 108.3 995 35 3 Image --
2002 4 13 21 -12.3 107.8 995 35 3 Image --
2002 4 14 00 -12.5 107.3 992 39 3 Image --
2002 4 14 03 -12.8 106.7 992 39 3 Image --
2002 4 14 06 -13.4 106.1 995 35 3 Image --
2002 4 14 09 -13.8 105.5 998 29 2 Image --
2002 4 14 12 -14.3 104.7 1000 27 2 Image --
2002 4 14 15 -14.8 103.7 1002 23 2 Image --
2002 4 14 18 -15.3 102.5 1002 23 2 Image --
2002 4 15 00 -15.8 101.3 1004 21 2 Image --
< Cyclone 200207 2002 Season Cyclone 200209 >

Help